Flight Track Log - Related Links

Times and Time Zones

All times are in EDT time to prevent confusion due to time zone crossing. See the G-VIIS flight status page for this flight to view local times or setup timezone preferences in your user account.

Time Position Orientation Groundspeed Altitude Reporting Facility
EDT Latitude Longitude Course Direction KTS MPH feet Rate Location/Type
Tue 06:12:17 AM 51.4650 -0.4280 88° East 167 192 900  Level FlightAware ADS-B
Tue 06:12:47 AM 51.4600 -0.3900 102° East 191 220 1,500 1,200 Climbing FlightAware ADS-B
Tue 06:13:02 AM 51.4520 -0.3680 120° Southeast 214 246 1,800 1,412 Climbing FlightAware ADS-B
Tue 06:13:04 AM 51.4498 -0.3618 120° Southeast 217 250 1,900 1,200 Climbing FlightAware ADS-B
Tue 06:13:17 AM 51.4454 -0.3407 109° East 234 269 2,100 1,241 Climbing FlightAware ADS-B
Tue 06:13:33 AM 51.4411 -0.3136 104° East 247 284 2,500 1,950 Climbing FlightAware ADS-B
Tue 06:13:57 AM 51.4344 -0.2713 104° East 253 291 3,400 2,308 Climbing FlightAware ADS-B
Tue 06:14:12 AM 51.4305 -0.2426 102° East 254 292 4,000 2,444 Climbing FlightAware ADS-B
Tue 06:14:24 AM 51.4272 -0.2204 103° East 258 297 4,500 2,357 Climbing FlightAware ADS-B
Tue 06:14:40 AM 51.4229 -0.1901 103° East 262 302 5,100 1,935 Climbing FlightAware ADS-B
Tue 06:14:55 AM 51.4187 -0.1612 103° East 265 305 5,500 1,161 Climbing FlightAware ADS-B
Tue 06:15:11 AM 51.4144 -0.1324 103° East 268 308 5,700 444 Climbing FlightAware ADS-B
Tue 06:15:22 AM 51.4122 -0.1103 99° East 264 304 5,700 231 Level FlightAware ADS-B
Tue 06:15:37 AM 51.4116 -0.0803 92° East 265 305 5,800 1,355 Climbing FlightAware ADS-B
Tue 06:15:53 AM 51.4116 -0.0496 90° East 266 306 6,400 2,364 Climbing FlightAware ADS-B
Tue 06:16:10 AM 51.4116 -0.0165 90° East 268 308 7,100 2,364 Climbing FlightAware ADS-B
Tue 06:16:26 AM 51.4114 0.0157 91° East 270 311 7,700 2,182 Climbing FlightAware ADS-B
Tue 06:16:43 AM 51.4108 0.0503 92° East 273 314 8,300 2,143 Climbing FlightAware ADS-B
Tue 06:16:54 AM 51.4103 0.0718 92° East 278 320 8,700 1,750 Climbing FlightAware ADS-B
Tue 06:17:07 AM 51.4083 0.0988 97° East 287 330 9,000 1,600 Climbing FlightAware ADS-B
Tue 06:17:24 AM 51.4046 0.1356 99° East 292 336 9,500 -474 Climbing FlightAware ADS-B
Tue 06:17:45 AM 51.3997 0.1814 99° East 286 329 8,700 1,688 Descending FlightAware UK
Tue 06:17:56 AM 51.3972 0.2037 99° East 306 352 10,400 800 Climbing FlightAware ADS-B
Tue 06:18:15 AM 51.3922 0.2499 99° East 316 364 9,100 1,000 Descending FlightAware UK
Tue 06:18:32 AM 51.3885 0.2908 99° East 339 390 11,000 1,000 Climbing FlightAware ADS-B
Tue 06:18:57 AM 51.3823 0.3558 99° East 350 403 9,800 938 Descending FlightAware UK
Tue 06:19:04 AM 51.3808 0.3723 99° East 367 422 11,500 2,000 Climbing FlightAware ADS-B
Tue 06:19:21 AM 51.3761 0.4206 99° East 362 417 10,600 2,200 Descending FlightAware UK
Tue 06:19:34 AM 51.3728 0.4548 99° East 376 433 12,600 2,000 Climbing FlightAware ADS-B
Tue 06:19:51 AM 51.3680 0.5030 99° East 364 419 11,600 1,818 Descending FlightAware UK
Tue 06:20:07 AM 51.3642 0.5464 99° East 390 449 13,600 1,742 Climbing FlightAware ADS-B
Tue 06:20:22 AM 51.3602 0.5891 99° East 374 430 12,500 2,143 Descending FlightAware UK
Tue 06:20:35 AM 51.3574 0.6259 99° East 396 456 14,600 2,143 Climbing FlightAware ADS-B
Tue 06:21:04 AM 51.3503 0.7116 99° East 378 435 14,000 1,688 Descending FlightAware UK
Tue 06:21:07 AM 51.3500 0.7130 99° East 405 466 15,500 12,000 Climbing FlightAware ADS-B
Tue 06:21:13 AM 51.3483 0.7389 96° East 407 468 15,800 -909 Climbing FlightAware ADS-B
Tue 06:21:40 AM 51.3421 0.8210 96° East 388 447 15,000 1,538 Descending FlightAware UK
Tue 06:21:52 AM 51.3410 0.8450 96° East 419 482 16,800 6,300 Climbing FlightAware ADS-B
Tue 06:22:00 AM 51.3379 0.8806 98° East 422 486 17,100 -1,000 Climbing FlightAware ADS-B
Tue 06:22:22 AM 51.3325 0.9515 98° East 394 453 16,300 1,688 Descending FlightAware UK
Tue 06:22:32 AM 51.3310 0.9770 98° East 432 497 18,000 1,400 Climbing FlightAware ADS-B
Tue 06:22:52 AM 51.3262 1.0465 98° East 400 460 17,000 1,818 Descending FlightAware UK
Tue 06:23:05 AM 51.3240 1.0887 98° East 427 491 19,000 1,800 Climbing FlightAware ADS-B
Tue 06:23:22 AM 51.3204 1.1449 98° East 408 470 17,900 1,610 Descending FlightAware UK
Tue 06:23:46 AM 51.3156 1.2227 98° East 427 491 20,100 1,714 Climbing FlightAware ADS-B
Tue 06:24:04 AM 51.3118 1.2830 98° East 416 479 19,100 1,688 Descending FlightAware UK
Tue 06:24:18 AM 51.3091 1.3282 98° East 453 521 21,000 1,600 Climbing FlightAware ADS-B
Tue 06:24:34 AM 51.3058 1.3839 98° East 422 486 19,900 -1,059 Descending FlightAware UK
Tue 06:24:52 AM 51.3026 1.4448 95° East 424 488 20,400 4,800 Climbing FlightAware UK
Tue 06:25:04 AM 51.3008 1.4827 95° East 462 532 22,300 1,600 Climbing FlightAware ADS-B
Tue 06:25:22 AM 51.2967 1.5469 95° East 428 493 21,200 1,548 Descending FlightAware UK
Tue 06:25:35 AM 51.2911 1.5888 95° East 464 534 23,100 1,600 Climbing FlightAware ADS-B
Tue 06:25:52 AM 51.2830 1.6474 95° East 432 497 22,000 1,538 Descending FlightAware UK
Tue 06:26:14 AM 51.2702 1.7171 95° East 468 539 24,100 1,500 Climbing FlightAware ADS-B
Tue 06:26:40 AM 51.2538 1.8070 95° East 446 513 23,200 1,737 Descending FlightAware UK
Tue 06:26:52 AM 51.2474 1.8433 95° East 470 541 25,200 3,574 Climbing FlightAware ADS-B
Tue 06:27:27 AM 51.2270 1.9540 106° East 473 544 26,000  Climbing FlightAware ADS-B
Tue 06:27:58 AM 51.2058 2.0672 106° East 454 522 25,200 1,467 Descending FlightAware UK
Tue 06:28:12 AM 51.1974 2.1128 106° East 480 552 27,100 1,347 Climbing FlightAware ADS-B
Tue 06:28:47 AM 51.1751 2.2317 106° East 460 529 26,300 1,050 Descending FlightAware UK
Tue 06:28:52 AM 51.1770 2.2240 106° East 486 559 27,800 3,467 Climbing FlightAware ADS-B
Tue 06:29:32 AM 51.1470 2.3790 107° East 490 564 28,900 2,118 Climbing FlightAware ADS-B
Tue 06:30:17 AM 51.1190 2.5330 106° East 474 545 30,800 1,725 Climbing FlightAware ADS-B
Tue 06:30:52 AM 51.1050 2.6360 106° East 483 556 31,200 -1,667 Climbing FlightAware ADS-B
Tue 06:30:53 AM 51.1020 2.6630 106° East 458 527 29,800 -2,400 Descending FlightAware UK
Tue 06:31:17 AM 51.0916 2.7470 106° East 460 529 30,200 1,000 Climbing FlightAware UK
Tue 06:31:35 AM 51.0838 2.8106 101° East 462 532 30,500 5,400 Climbing FlightAware UK
Tue 06:31:37 AM 51.0850 2.7990 101° East 493 567 32,000 1,000 Climbing FlightAware ADS-B
Tue 06:32:05 AM 51.0704 2.9173 101° East 466 536 31,000 1,067 Descending FlightAware UK
Tue 06:32:22 AM 51.0650 2.9660 101° East 499 574 32,800 1,000 Climbing FlightAware ADS-B
Tue 06:32:47 AM 51.0520 3.0690 101° East 468 539 31,700 750 Descending FlightAware UK
Tue 06:33:02 AM 51.0470 3.1060 101° East 506 582 33,300 625 Climbing FlightAware ADS-B
Tue 06:33:35 AM 51.0294 3.2443 101° East 474 545 32,200 800 Descending FlightAware UK
Tue 06:33:47 AM 51.0260 3.2700 101° East 512 589 33,900 600 Climbing FlightAware ADS-B
Tue 06:34:05 AM 51.0144 3.3556 101° East 480 552 32,500 750 Descending FlightAware UK
Tue 06:34:27 AM 51.0080 3.4260 101° East 523 602 34,400 2,613 Climbing FlightAware ADS-B
Tue 06:35:07 AM 50.9930 3.5770 99° East 518 596 35,200  Climbing FlightAware ADS-B
Tue 06:35:29 AM 50.9827 3.6730 99° East 486 559 34,400 1,867 Descending FlightAware UK
Tue 06:35:52 AM 50.9750 3.7440 99° East 504 580 36,600 2,476 Climbing FlightAware ADS-B
Tue 06:36:32 AM 50.9590 3.8870 100° East 507 583 37,000 -1,082 Climbing FlightAware ADS-B
Tue 06:36:53 AM 50.9493 3.9795 100° East 478 550 35,500  Descending FlightAware UK
Tue 06:37:12 AM 50.9380 4.0330 100° East 506 582 37,000  Climbing FlightAware ADS-B
Tue 06:37:47 AM 50.9056 4.1651 100° East 480 552 35,500  Descending FlightAware UK
Tue 06:37:57 AM 50.9000 4.1840 100° East 497 572 37,000  Climbing FlightAware ADS-B
Tue 06:38:29 AM 50.8617 4.3013 100° East 480 552 35,500  Descending FlightAware UK
Tue 06:38:37 AM 50.8580 4.3130 100° East 498 573 37,000  Climbing FlightAware ADS-B
Tue 06:38:53 AM 50.8372 4.3800 100° East 480 552 35,500 -2,647 Descending FlightAware UK
Tue 06:39:11 AM 50.8184 4.4382 117° Southeast 482 555 35,500 3,103 Level FlightAware UK
Tue 06:39:22 AM 50.8100 4.4630 117° Southeast 495 570 37,000  Climbing FlightAware ADS-B
Tue 06:39:53 AM 50.7746 4.5735 117° Southeast 480 552 35,500  Descending FlightAware UK
Tue 06:40:02 AM 50.7700 4.5860 117° Southeast 493 567 37,000 1,837 Climbing FlightAware ADS-B
Tue 06:40:42 AM 50.7280 4.7160 117° Southeast 492 566 37,000  Level FlightAware ADS-B
Tue 06:41:27 AM 50.6810 4.8570 118° Southeast 490 564 37,000  Level FlightAware ADS-B
Tue 06:42:07 AM 50.6400 4.9860 117° Southeast 492 566 37,000  Level FlightAware ADS-B
Tue 06:42:52 AM 50.5970 5.1320 115° Southeast 493 567 37,000  Level FlightAware ADS-B
Tue 06:43:32 AM 50.5570 5.2660 115° Southeast 492 566 37,000  Level FlightAware ADS-B
Tue 06:44:12 AM 50.5140 5.3870 119° Southeast 482 555 37,000  Level FlightAware ADS-B
Tue 06:44:57 AM 50.4570 5.5070 127° Southeast 484 557 37,000  Level FlightAware ADS-B
Tue 06:45:37 AM 50.4010 5.6290 126° Southeast 489 563 37,000  Level FlightAware ADS-B
Tue 06:46:22 AM 50.3430 5.7610 125° Southeast 490 564 37,000  Level FlightAware ADS-B
Tue 06:47:02 AM 50.2920 5.8770 125° Southeast 489 563 37,000  Level FlightAware ADS-B
Tue 06:47:42 AM 50.2390 5.9970 125° Southeast 489 563 37,000  Level FlightAware ADS-B
Tue 06:48:27 AM 50.1870 6.1130 125° Southeast 491 565 37,000  Level FlightAware ADS-B
Tue 06:49:02 AM 50.1360 6.2250 125° Southeast 493 567 37,000  Level FlightAware ADS-B
Tue 06:49:47 AM 50.0780 6.3540 125° Southeast 492 566 37,000  Level FlightAware ADS-B
Tue 06:50:32 AM 50.0200 6.4770 126° Southeast 490 564 37,000  Level FlightAware ADS-B
Tue 06:51:12 AM 49.9630 6.5990 126° Southeast 490 564 37,000  Level FlightAware ADS-B
Tue 06:51:52 AM 49.9090 6.7130 126° Southeast 487 560 37,000  Level FlightAware ADS-B
Tue 06:52:32 AM 49.8580 6.8210 126° Southeast 486 559 37,000  Level FlightAware ADS-B
Tue 06:53:12 AM 49.8060 6.9300 126° Southeast 486 559 37,000  Level FlightAware ADS-B
Tue 06:54:02 AM 49.7390 7.0690 127° Southeast 484 557 37,000  Level FlightAware ADS-B
Tue 06:54:42 AM 49.6920 7.1690 126° Southeast 485 558 37,000  Level FlightAware ADS-B
Tue 06:55:27 AM 49.6300 7.2960 127° Southeast 484 557 37,000  Level FlightAware ADS-B
Tue 06:56:12 AM 49.5720 7.4170 126° Southeast 483 556 37,000  Level FlightAware ADS-B
Tue 06:57:12 AM 49.4930 7.5790 127° Southeast 478 550 37,000  Level FlightAware ADS-B
Tue 06:57:57 AM 49.4300 7.7090 127° Southeast 477 549 37,000  Level FlightAware ADS-B
Tue 06:58:42 AM 49.3720 7.8250 127° Southeast 477 549 37,000  Level FlightAware ADS-B
Tue 06:59:22 AM 49.3200 7.9320 127° Southeast 471 542 37,000  Level FlightAware ADS-B
Tue 07:00:07 AM 49.2510 8.0330 136° Southeast 461 531 37,000  Level FlightAware ADS-B
Tue 07:00:47 AM 49.1800 8.1350 137° Southeast 468 539 37,000  Level FlightAware ADS-B
Tue 07:01:27 AM 49.1180 8.2280 136° Southeast 461 531 37,000  Level FlightAware ADS-B
Tue 07:02:12 AM 49.0490 8.3310 136° Southeast 461 531 37,000  Level FlightAware ADS-B
Tue 07:02:52 AM 48.9890 8.4220 135° Southeast 461 531 37,000  Level FlightAware ADS-B
Tue 07:03:37 AM 48.9190 8.5260 136° Southeast 466 536 37,000  Level FlightAware ADS-B
Tue 07:04:17 AM 48.8610 8.6090 137° Southeast 467 537 37,000  Level FlightAware ADS-B
Tue 07:05:02 AM 48.7850 8.7170 137° Southeast 469 540 37,000  Level FlightAware ADS-B
Tue 07:05:42 AM 48.7220 8.8070 137° Southeast 469 540 37,000  Level FlightAware ADS-B
Tue 07:06:22 AM 48.6580 8.8980 137° Southeast 467 537 37,000  Level FlightAware ADS-B
Tue 07:07:07 AM 48.5880 8.9970 137° Southeast 467 537 37,000  Level FlightAware ADS-B
Tue 07:07:47 AM 48.5240 9.0870 137° Southeast 465 535 37,000  Level FlightAware ADS-B
Tue 07:08:27 AM 48.4630 9.1720 137° Southeast 464 534 37,000  Level FlightAware ADS-B
Tue 07:09:12 AM 48.3910 9.2730 137° Southeast 462 532 37,000  Level FlightAware ADS-B
Tue 07:09:52 AM 48.3290 9.3590 137° Southeast 462 532 37,000  Level FlightAware ADS-B
Tue 07:10:37 AM 48.2590 9.4560 137° Southeast 461 531 37,000  Level FlightAware ADS-B
Tue 07:11:12 AM 48.2010 9.5330 138° Southeast 464 534 37,000  Level FlightAware ADS-B
Tue 07:12:02 AM 48.1190 9.6380 139° Southeast 455 524 37,000  Level FlightAware ADS-B
Tue 07:12:42 AM 48.0620 9.7100 140° Southeast 459 528 37,000  Level FlightAware ADS-B
Tue 07:13:22 AM 47.9910 9.7920 142° Southeast 456 525 37,000  Level FlightAware ADS-B
Tue 07:14:07 AM 47.9110 9.8740 145° Southeast 451 519 37,000  Level FlightAware ADS-B
Tue 07:14:47 AM 47.8420 9.9430 146° Southeast 444 511 37,000  Level FlightAware ADS-B
Tue 07:15:27 AM 47.7730 10.0110 146° Southeast 446 513 37,000  Level FlightAware ADS-B
Tue 07:16:12 AM 47.6940 10.0880 147° Southeast 444 511 37,000  Level FlightAware ADS-B
Tue 07:16:52 AM 47.6220 10.1590 146° Southeast 444 511 37,000  Level FlightAware ADS-B
Tue 07:17:27 AM 47.5660 10.2140 146° Southeast 444 511 37,000  Level FlightAware ADS-B
Tue 07:18:17 AM 47.4830 10.2970 146° Southeast 446 513 37,000  Level FlightAware ADS-B
Tue 07:19:27 AM 47.3620 10.4150 147° Southeast 442 509 37,000  Level FlightAware ADS-B
Tue 07:20:07 AM 47.2950 10.4800 147° Southeast 442 509 37,000  Level FlightAware ADS-B
Tue 07:20:47 AM 47.2210 10.5520 147° Southeast 447 514 37,000  Level FlightAware ADS-B
Tue 07:21:37 AM 47.1400 10.6310 146° Southeast 446 513 37,000  Level FlightAware ADS-B
Tue 07:22:17 AM 47.0740 10.7050 143° Southeast 454 522 37,000  Level FlightAware ADS-B
Tue 07:23:02 AM 47.0230 10.8250 122° Southeast 468 539 37,000  Level FlightAware ADS-B
Tue 07:23:42 AM 46.9830 10.9390 117° Southeast 470 541 37,000  Level FlightAware ADS-B
Tue 07:24:22 AM 46.9380 11.0640 118° Southeast 470 541 37,000  Level FlightAware ADS-B
Tue 07:25:07 AM 46.8950 11.1830 118° Southeast 467 537 37,000  Level FlightAware ADS-B
Tue 07:25:47 AM 46.8520 11.3040 117° Southeast 465 535 37,000  Level FlightAware ADS-B
Tue 07:26:22 AM 46.8190 11.3940 118° Southeast 468 539 37,000  Level FlightAware ADS-B
Tue 07:27:02 AM 46.7760 11.5090 119° Southeast 462 532 37,000  Level FlightAware ADS-B
Tue 07:27:52 AM 46.7280 11.6470 117° Southeast 466 536 37,000  Level FlightAware ADS-B
Tue 07:28:37 AM 46.6840 11.7730 117° Southeast 469 540 37,000  Level FlightAware ADS-B
Tue 07:29:17 AM 46.6370 11.8820 122° Southeast 465 535 37,000  Level FlightAware ADS-B
Tue 07:30:02 AM 46.5780 11.9890 129° Southeast 458 527 37,000  Level FlightAware ADS-B
Tue 07:30:37 AM 46.5290 12.0730 130° Southeast 457 526 37,000  Level FlightAware ADS-B
Tue 07:31:22 AM 46.4670 12.1810 130° Southeast 457 526 37,000  Level FlightAware ADS-B
Tue 07:32:07 AM 46.4060 12.2870 130° Southeast 458 527 37,000  Level FlightAware ADS-B
Tue 07:32:47 AM 46.3520 12.3800 130° Southeast 454 522 37,000  Level FlightAware ADS-B
Tue 07:33:32 AM 46.2920 12.4840 130° Southeast 453 521 37,000  Level FlightAware ADS-B
Tue 07:34:12 AM 46.2360 12.5790 130° Southeast 454 522 37,000  Level FlightAware ADS-B
Tue 07:34:52 AM 46.1810 12.6720 130° Southeast 457 526 37,000  Level FlightAware ADS-B
Tue 07:35:37 AM 46.1180 12.7800 130° Southeast 458 527 37,000  Level FlightAware ADS-B
Tue 07:36:17 AM 46.0650 12.8690 131° Southeast 459 528 37,000  Level FlightAware ADS-B
Tue 07:36:57 AM 46.0100 12.9620 130° Southeast 458 527 37,000  Level FlightAware ADS-B
Tue 07:37:42 AM 45.9450 13.0720 130° Southeast 459 528 37,000  Level FlightAware ADS-B
Tue 07:38:22 AM 45.8900 13.1640 131° Southeast 455 524 37,000  Level FlightAware ADS-B
Tue 07:39:07 AM 45.8260 13.2700 131° Southeast 455 524 37,000  Level FlightAware ADS-B
Tue 07:39:47 AM 45.7710 13.3610 131° Southeast 456 525 37,000  Level FlightAware ADS-B
Tue 07:40:27 AM 45.7150 13.4550 130° Southeast 456 525 37,000  Level FlightAware ADS-B
Tue 07:41:12 AM 45.6560 13.5530 131° Southeast 455 524 37,000  Level FlightAware ADS-B
Tue 07:41:52 AM 45.5970 13.6490 131° Southeast 457 526 37,000  Level FlightAware ADS-B
Tue 07:42:37 AM 45.5350 13.7530 130° Southeast 455 524 37,000  Level FlightAware ADS-B
Tue 07:43:17 AM 45.4820 13.8390 131° Southeast 454 522 37,000  Level FlightAware ADS-B
Tue 07:43:57 AM 45.4230 13.9360 131° Southeast 454 522 37,000  Level FlightAware ADS-B
Tue 07:44:42 AM 45.3700 14.0230 131° Southeast 460 529 37,000  Level FlightAware ADS-B
Tue 07:45:17 AM 45.3160 14.1100 131° Southeast 460 529 37,000  Level FlightAware ADS-B
Tue 07:46:07 AM 45.2430 14.2290 131° Southeast 452 520 37,000  Level FlightAware ADS-B
Tue 07:46:47 AM 45.1940 14.3090 131° Southeast 457 526 37,000  Level FlightAware ADS-B
Tue 07:47:32 AM 45.1310 14.4100 131° Southeast 454 522 37,000  Level FlightAware ADS-B
Tue 07:48:12 AM 45.0730 14.5030 131° Southeast 455 524 37,000  Level FlightAware ADS-B
Tue 07:48:47 AM 45.0270 14.5760 132° Southeast 455 524 37,000  Level FlightAware ADS-B
Tue 07:49:32 AM 44.9630 14.6790 131° Southeast 454 522 37,000  Level FlightAware ADS-B
Tue 07:50:17 AM 44.9000 14.7780 132° Southeast 453 521 37,000  Level FlightAware ADS-B
Tue 07:50:57 AM 44.8500 14.8580 131° Southeast 453 521 37,000  Level FlightAware ADS-B
Tue 07:51:57 AM 44.7650 14.9930 132° Southeast 453 521 37,000  Level FlightAware ADS-B
Tue 07:52:37 AM 44.7110 15.0780 132° Southeast 451 519 37,000  Level FlightAware ADS-B
Tue 07:53:22 AM 44.6370 15.1930 132° Southeast 440 506 37,000  Level FlightAware ADS-B
Tue 07:54:02 AM 44.5810 15.2820 131° Southeast 440 506 37,000  Level FlightAware ADS-B
Tue 07:54:42 AM 44.5280 15.3640 132° Southeast 442 509 37,000  Level FlightAware ADS-B
Tue 07:55:27 AM 44.4640 15.4630 132° Southeast 444 511 37,000  Level FlightAware ADS-B
Tue 07:56:07 AM 44.4080 15.5500 132° Southeast 445 512 37,000  Level FlightAware ADS-B
Tue 07:56:52 AM 44.3470 15.6440 132° Southeast 445 512 37,000  Level FlightAware ADS-B
Tue 07:57:32 AM 44.2890 15.7340 132° Southeast 451 519 37,000  Level FlightAware ADS-B
Tue 07:58:17 AM 44.2280 15.8270 132° Southeast 451 519 37,000  Level FlightAware ADS-B
Tue 07:58:57 AM 44.1700 15.9150 133° Southeast 450 518 37,000  Level FlightAware ADS-B
Tue 07:59:37 AM 44.1130 16.0010 133° Southeast 449 517 37,000  Level FlightAware ADS-B
Tue 08:00:17 AM 44.0570 16.0870 132° Southeast 450 518 37,000  Level FlightAware ADS-B
Tue 08:01:02 AM 43.9930 16.1830 133° Southeast 450 518 37,000  Level FlightAware ADS-B
Tue 08:01:42 AM 43.9370 16.2670 133° Southeast 452 520 37,000  Level FlightAware ADS-B
Tue 08:02:27 AM 43.8740 16.3630 132° Southeast 450 518 37,000  Level FlightAware ADS-B
Tue 08:03:07 AM 43.8180 16.4470 133° Southeast 449 517 37,000  Level FlightAware ADS-B
Tue 08:03:52 AM 43.7530 16.5430 133° Southeast 453 521 37,000  Level FlightAware ADS-B
Tue 08:04:32 AM 43.6990 16.6240 133° Southeast 454 522 37,000  Level FlightAware ADS-B
Tue 08:05:12 AM 43.6400 16.7110 133° Southeast 452 520 37,000  Level FlightAware ADS-B
Tue 08:05:57 AM 43.5760 16.8070 133° Southeast 452 520 37,000  Level FlightAware ADS-B
Tue 08:06:37 AM 43.5200 16.8900 133° Southeast 451 519 37,000  Level FlightAware ADS-B
Tue 08:07:22 AM 43.4540 16.9860 133° Southeast 454 522 37,000  Level FlightAware ADS-B
Tue 08:08:02 AM 43.3980 17.0690 133° Southeast 450 518 37,000  Level FlightAware ADS-B
Tue 08:08:42 AM 43.3400 17.1530 133° Southeast 450 518 37,000  Level FlightAware ADS-B
Tue 08:09:27 AM 43.2740 17.2490 133° Southeast 453 521 37,000  Level FlightAware ADS-B
Tue 08:10:07 AM 43.2180 17.3300 133° Southeast 453 521 37,000  Level FlightAware ADS-B
Tue 08:10:52 AM 43.1500 17.4280 134° Southeast 452 520 37,000  Level FlightAware ADS-B
Tue 08:11:32 AM 43.0930 17.5120 133° Southeast 452 520 37,000  Level FlightAware ADS-B
Tue 08:12:12 AM 43.0340 17.5960 134° Southeast 451 519 37,000  Level FlightAware ADS-B
Tue 08:12:52 AM 42.9780 17.6760 134° Southeast 452 520 37,000  Level FlightAware ADS-B
Tue 08:13:37 AM 42.9110 17.7730 133° Southeast 451 519 37,000  Level FlightAware ADS-B
Tue 08:14:22 AM 42.8450 17.8660 134° Southeast 450 518 37,000  Level FlightAware ADS-B
Tue 08:15:02 AM 42.7890 17.9450 134° Southeast 447 514 37,000  Level FlightAware ADS-B
Tue 08:15:42 AM 42.7300 18.0290 134° Southeast 447 514 37,000  Level FlightAware ADS-B
Tue 08:16:27 AM 42.6640 18.1230 134° Southeast 454 522 37,000  Level FlightAware ADS-B
Tue 08:17:07 AM 42.6060 18.2040 134° Southeast 455 524 37,000  Level FlightAware ADS-B
Tue 08:17:47 AM 42.5470 18.2870 134° Southeast 456 525 37,000  Level FlightAware ADS-B
Tue 08:18:32 AM 42.4750 18.3760 138° Southeast 451 519 37,000  Level FlightAware ADS-B
Tue 08:19:12 AM 42.4140 18.4370 144° Southeast 451 519 37,000  Level FlightAware ADS-B
Tue 08:19:57 AM 42.3320 18.5150 145° Southeast 451 519 37,000  Level FlightAware ADS-B
Tue 08:20:37 AM 42.2630 18.5810 145° Southeast 453 521 37,000  Level FlightAware ADS-B
Tue 08:21:22 AM 42.1890 18.6520 145° Southeast 453 521 37,000  Level FlightAware ADS-B
Tue 08:22:02 AM 42.1210 18.7170 145° Southeast 453 521 37,000  Level FlightAware ADS-B
Tue 08:22:42 AM 42.0520 18.7830 145° Southeast 454 522 37,000  Level FlightAware ADS-B
Tue 08:23:27 AM 41.9740 18.8570 145° Southeast 454 522 37,000  Level FlightAware ADS-B
Tue 08:24:02 AM 41.9150 18.9120 145° Southeast 454 522 37,000  Level FlightAware ADS-B
Tue 08:24:52 AM 41.8280 18.9940 145° Southeast 455 524 37,000  Level FlightAware ADS-B
Tue 08:25:22 AM 41.7770 19.0430 144° Southeast 457 526 37,000  Level FlightAware ADS-B
Tue 08:26:12 AM 41.6900 19.1240 145° Southeast 457 526 37,000  Level FlightAware ADS-B
Tue 08:26:52 AM 41.6220 19.1880 145° Southeast 457 526 37,000  Level FlightAware ADS-B
Tue 08:27:37 AM 41.5410 19.2590 147° Southeast 455 524 37,000  Level FlightAware ADS-B
Tue 08:28:17 AM 41.4710 19.3210 146° Southeast 456 525 37,000  Level FlightAware ADS-B
Tue 08:29:02 AM 41.3920 19.3890 147° Southeast 457 526 37,000  Level FlightAware ADS-B
Tue 08:29:42 AM 41.3220 19.4500 147° Southeast 459 528 37,000  Level FlightAware ADS-B
Tue 08:30:27 AM 41.2450 19.5180 146° Southeast 459 528 37,000  Level FlightAware ADS-B
Tue 08:31:07 AM 41.1700 19.5830 147° Southeast 460 529 37,000  Level FlightAware ADS-B
Tue 08:31:47 AM 41.0990 19.6440 147° Southeast 462 532 37,000  Level FlightAware ADS-B
Tue 08:32:32 AM 41.0190 19.7120 147° Southeast 463 533 37,000  Level FlightAware ADS-B
Tue 08:33:12 AM 40.9480 19.7740 147° Southeast 464 534 37,000  Level FlightAware ADS-B
Tue 08:33:57 AM 40.8650 19.8450 147° Southeast 464 534 37,000  Level FlightAware ADS-B
Tue 08:34:37 AM 40.7900 19.9090 147° Southeast 464 534 37,000  Level FlightAware ADS-B
Tue 08:35:17 AM 40.7180 19.9700 147° Southeast 464 534 37,000  Level FlightAware ADS-B
Tue 08:36:02 AM 40.6400 20.0370 147° Southeast 466 536 37,000  Level FlightAware ADS-B
Tue 08:36:42 AM 40.5900 20.0790 147° Southeast 466 536 37,000  Level FlightAware ADS-B
Tue 08:37:22 AM 40.5100 20.1470 147° Southeast 468 539 37,000  Level FlightAware ADS-B
Tue 08:38:07 AM 40.4400 20.2050 148° Southeast 468 539 37,000  Level FlightAware ADS-B
Tue 08:38:47 AM 40.3560 20.2770 147° Southeast 469 540 37,000  Level FlightAware ADS-B
Tue 08:39:22 AM 40.2920 20.3300 148° Southeast 471 542 37,000  Level FlightAware ADS-B
Tue 08:40:17 AM 40.1870 20.4180 147° Southeast 472 543 37,000  Level FlightAware ADS-B
Tue 08:40:47 AM 40.1380 20.4590 147° Southeast 473 544 37,000  Level FlightAware ADS-B
Tue 08:41:52 AM 40.0210 20.5490 149° Southeast 473 544 37,000  Level FlightAware ADS-B
Tue 08:42:37 AM 39.9310 20.6120 152° Southeast 473 544 37,000 282 Level FlightAware ADS-B
Tue 08:43:17 AM 39.8490 20.6710 151° Southeast 476 548 37,400 675 Climbing FlightAware ADS-B
Tue 08:43:57 AM 39.7800 20.7210 151° Southeast 477 549 37,900 635 Climbing FlightAware ADS-B
Tue 08:44:42 AM 39.6900 20.7850 151° Southeast 480 552 38,300 635 Climbing FlightAware ADS-B
Tue 08:45:22 AM 39.6130 20.8400 151° Southeast 478 550 38,800 525 Climbing FlightAware ADS-B
Tue 08:46:02 AM 39.5470 20.8860 152° Southeast 476 548 39,000 150 Climbing FlightAware ADS-B
Tue 08:46:42 AM 39.4350 20.9640 152° Southeast 475 547 39,000  Level FlightAware ADS-B
Tue 08:47:42 AM 39.3170 21.0460 152° Southeast 476 548 39,000  Level FlightAware ADS-B
Tue 08:48:27 AM 39.2300 21.1060 152° Southeast 476 548 39,000  Level FlightAware ADS-B
Tue 08:49:07 AM 39.1540 21.1590 152° Southeast 478 550 39,000  Level FlightAware ADS-B
Tue 08:49:47 AM 39.0750 21.2140 152° Southeast 478 550 39,000  Level FlightAware ADS-B
Tue 08:50:32 AM 38.9880 21.2730 152° Southeast 480 552 39,000  Level FlightAware ADS-B
Tue 08:51:12 AM 38.9090 21.3280 152° Southeast 480 552 39,000  Level FlightAware ADS-B
Tue 08:51:52 AM 38.8300 21.3820 152° Southeast 482 555 39,000  Level FlightAware ADS-B
Tue 08:52:32 AM 38.7510 21.4350 152° Southeast 483 556 39,000  Level FlightAware ADS-B
Tue 08:53:17 AM 38.6600 21.4970 152° Southeast 484 557 39,000  Level FlightAware ADS-B
Tue 08:54:02 AM 38.5750 21.5550 152° Southeast 483 556 39,000  Level FlightAware ADS-B
Tue 08:54:42 AM 38.4970 21.6070 152° Southeast 484 557 39,000  Level FlightAware ADS-B
Tue 08:55:27 AM 38.4030 21.6710 152° Southeast 485 558 39,000  Level FlightAware ADS-B
Tue 08:56:07 AM 38.3250 21.7230 152° Southeast 486 559 39,000  Level FlightAware ADS-B
Tue 08:56:47 AM 38.2450 21.7770 152° Southeast 486 559 39,000  Level FlightAware ADS-B
Tue 08:57:32 AM 38.1570 21.8360 152° Southeast 487 560 39,000  Level FlightAware ADS-B
Tue 08:58:12 AM 38.0770 21.8900 152° Southeast 488 562 39,000  Level FlightAware ADS-B
Tue 08:58:52 AM 37.9970 21.9430 152° Southeast 490 564 39,000  Level FlightAware ADS-B
Tue 08:59:37 AM 37.9070 22.0030 152° Southeast 491 565 39,000  Level FlightAware ADS-B
Tue 09:00:17 AM 37.8250 22.0570 153° Southeast 493 567 39,000  Level FlightAware ADS-B
Tue 09:01:02 AM 37.7350 22.1160 153° Southeast 494 568 39,000  Level FlightAware ADS-B
Tue 09:01:42 AM 37.6540 22.1700 152° Southeast 496 571 39,000  Level FlightAware ADS-B
Tue 09:02:27 AM 37.5610 22.2310 153° Southeast 497 572 39,000  Level FlightAware ADS-B
Tue 09:03:07 AM 37.4800 22.2840 153° Southeast 498 573 39,000  Level FlightAware ADS-B
Tue 09:03:47 AM 37.3960 22.3380 153° Southeast 498 573 39,000  Level FlightAware ADS-B
Tue 09:04:32 AM 37.3060 22.3970 152° Southeast 498 573 39,000  Level FlightAware ADS-B
Tue 09:05:12 AM 37.2240 22.4510 152° Southeast 499 574 39,000  Level FlightAware ADS-B
Tue 09:05:52 AM 37.1440 22.5030 153° Southeast 499 574 39,000  Level FlightAware ADS-B
Tue 09:06:37 AM 37.0500 22.5640 153° Southeast 500 575 39,000  Level FlightAware ADS-B
Tue 09:07:17 AM 36.9650 22.6180 153° Southeast 500 575 39,000  Level FlightAware ADS-B
Tue 09:08:02 AM 36.8750 22.6760 153° Southeast 500 575 39,000  Level FlightAware ADS-B
Tue 09:08:42 AM 36.7920 22.7290 153° Southeast 500 575 39,000  Level FlightAware ADS-B
Tue 09:09:27 AM 36.6980 22.7890 153° Southeast 501 577 39,000  Level FlightAware ADS-B
Tue 09:10:07 AM 36.6160 22.8420 153° Southeast 501 577 39,000  Level FlightAware ADS-B
Tue 09:10:47 AM 36.5330 22.8950 153° Southeast 502 578 39,000  Level FlightAware ADS-B
Tue 09:11:32 AM 36.4430 22.9520 153° Southeast 502 578 39,000  Level FlightAware ADS-B
Tue 09:12:12 AM 36.3640 23.0020 153° Southeast 503 579 39,000  Level FlightAware ADS-B
Tue 09:12:57 AM 36.2790 23.0590 152° Southeast 503 579 39,000  Level FlightAware ADS-B
Tue 09:13:37 AM 36.2090 23.1050 152° Southeast 503 579 39,000  Level FlightAware ADS-B
Tue 09:14:17 AM 36.1390 23.1510 152° Southeast 503 579 39,000  Level FlightAware ADS-B
Tue 09:14:57 AM 36.0690 23.1970 152° Southeast 503 579 39,000  Level FlightAware ADS-B
Tue 09:15:37 AM 35.9990 23.2430 152° Southeast 503 579 39,000  Level FlightAware ADS-B
Tue 09:16:17 AM 35.9290 23.2880 152° Southeast 503 579 39,000  Level FlightAware ADS-B
Tue 09:16:57 AM 35.8590 23.3340 152° Southeast 503 579 39,000  Level FlightAware ADS-B
Tue 09:17:47 AM 35.7720 23.3920 152° Southeast 503 579 39,000  Level FlightAware ADS-B
Tue 09:18:37 AM 35.5630 23.5040 156° South 508 585 39,000  Level FlightAware ADS-B
Tue 09:19:22 AM 35.4640 23.5640 154° Southeast 507 583 39,000  Level FlightAware ADS-B
Tue 09:20:02 AM 35.3870 23.6120 153° Southeast 508 585 39,000  Level FlightAware ADS-B
Tue 09:20:42 AM 35.3160 23.6570 153° Southeast 508 585 39,000  Level FlightAware ADS-B
Tue 09:21:32 AM 35.2270 23.7120 153° Southeast 508 585 39,000  Level FlightAware ADS-B
Tue 09:22:12 AM 35.1560 23.7570 153° Southeast 508 585 39,000  Level FlightAware ADS-B
Tue 09:22:52 AM 35.0850 23.8010 153° Southeast 508 585 39,000  Level FlightAware ADS-B
Tue 09:23:32 AM 35.0140 23.8450 153° Southeast 508 585 39,000  Level FlightAware ADS-B
Tue 09:24:12 AM 34.9420 23.8900 153° Southeast 508 585 39,000  Level FlightAware ADS-B
Tue 09:24:52 AM 34.7720 23.9870 155° Southeast 509 586 39,000  Level FlightAware ADS-B
Tue 09:25:37 AM 34.6880 24.0390 153° Southeast 509 586 39,000  Level FlightAware ADS-B
Tue 09:26:27 AM 34.5990 24.0950 153° Southeast 509 586 39,000  Level FlightAware ADS-B
Tue 09:27:07 AM 34.5280 24.1390 153° Southeast 509 586 39,000  Level FlightAware ADS-B
Tue 09:27:47 AM 34.4560 24.1830 153° Southeast 509 586 39,000  Level FlightAware ADS-B
Tue 09:28:27 AM 34.3850 24.2270 153° Southeast 509 586 39,000  Level FlightAware ADS-B
Tue 09:29:07 AM 34.3140 24.2710 153° Southeast 509 586 39,000  Level FlightAware ADS-B
Tue 09:29:57 AM 34.2240 24.3260 153° Southeast 509 586 39,000  Level FlightAware ADS-B
Tue 09:30:37 AM 34.1530 24.3700 153° Southeast 509 586 39,000  Level FlightAware ADS-B
Tue 09:31:17 AM 34.0820 24.4140 153° Southeast 509 586 39,000  Level FlightAware ADS-B
Tue 09:31:57 AM 34.0100 24.4580 153° Southeast 509 586 39,000  Level FlightAware ADS-B
Tue 09:32:37 AM 33.9390 24.5010 153° Southeast 509 586 39,000  Level FlightAware ADS-B
Tue 09:33:27 AM 33.8500 24.5560 153° Southeast 509 586 39,000  Level FlightAware ADS-B
Tue 09:34:07 AM 33.7780 24.6000 153° Southeast 509 586 39,000  Level FlightAware ADS-B
Tue 09:34:47 AM 33.7070 24.6440 153° Southeast 509 586 39,000  Level FlightAware ADS-B
Tue 09:37:00 AM 33.4534 24.7592 159° South  Level Estimated
Tue 09:38:00 AM 33.3389 24.8109 159° South  Level Estimated
Tue 09:39:00 AM 33.2245 24.8625 159° South  Level Estimated
Tue 09:40:00 AM 33.1100 24.9140 159° South  Level Estimated
Tue 09:41:00 AM 32.9955 24.9653 159° South  Level Estimated
Tue 09:42:00 AM 32.8809 25.0165 159° South  Level Estimated
Tue 09:43:00 AM 32.7664 25.0676 159° South  Level Estimated
Tue 09:44:00 AM 32.6518 25.1185 159° South  Level Estimated
Tue 09:45:00 AM 32.5372 25.1693 160° South  Level Estimated
Tue 09:46:00 AM 32.4226 25.2200 160° South  Level Estimated
Tue 09:47:00 AM 32.3079 25.2706 160° South  Level Estimated
Tue 09:48:00 AM 32.1933 25.3210 160° South  Level Estimated
Tue 09:49:00 AM 32.0786 25.3713 160° South  Level Estimated
Tue 09:50:00 AM 31.9639 25.4214 160° South  Level Estimated
Tue 09:51:00 AM 31.8492 25.4715 160° South  Level Estimated
Tue 09:52:00 AM 31.7344 25.5214 160° South  Level Estimated
Tue 09:53:00 AM 31.6197 25.5712 160° South  Level Estimated
Tue 09:54:00 AM 31.5049 25.6209 160° South  Level Estimated
Tue 09:55:00 AM 31.3901 25.6704 160° South  Level Estimated
Tue 09:56:00 AM 31.2753 25.7198 160° South  Level Estimated
Tue 09:57:00 AM 31.1605 25.7691 160° South  Level Estimated
Tue 09:58:00 AM 31.0456 25.8183 160° South  Level Estimated
Tue 09:59:00 AM 30.9307 25.8674 160° South  Level Estimated
Tue 10:00:00 AM 30.8159 25.9164 160° South  Level Estimated
Tue 10:01:00 AM 30.7010 25.9652 160° South  Level Estimated
Tue 10:02:00 AM 30.5860 26.0139 160° South  Level Estimated
Tue 10:03:00 AM 30.4711 26.0625 160° South  Level Estimated
Tue 10:04:00 AM 30.3561 26.1110 160° South  Level Estimated
Tue 10:05:00 AM 30.2411 26.1594 160° South  Level Estimated
Tue 10:06:00 AM 30.1262 26.2076 160° South  Level Estimated
Tue 10:07:00 AM 30.0111 26.2558 160° South  Level Estimated
Tue 10:08:00 AM 29.8961 26.3038 160° South  Level Estimated
Tue 10:09:00 AM 29.7811 26.3518 160° South  Level Estimated
Tue 10:10:00 AM 29.6660 26.3996 160° South  Level Estimated
Tue 10:11:00 AM 29.5509 26.4473 160° South  Level Estimated
Tue 10:12:00 AM 29.4358 26.4949 160° South  Level Estimated
Tue 10:13:00 AM 29.3207 26.5424 160° South  Level Estimated
Tue 10:14:00 AM 29.2056 26.5898 160° South  Level Estimated
Tue 10:15:00 AM 29.0904 26.6371 160° South  Level Estimated
Tue 10:16:00 AM 28.9752 26.6842 160° South  Level Estimated
Tue 10:17:00 AM 28.8601 26.7313 160° South  Level Estimated
Tue 10:18:00 AM 28.7449 26.7783 160° South  Level Estimated
Tue 10:19:00 AM 28.6296 26.8251 160° South  Level Estimated
Tue 10:20:00 AM 28.5144 26.8719 160° South  Level Estimated
Tue 10:21:00 AM 28.3992 26.9185 160° South  Level Estimated
Tue 10:22:00 AM 28.2839 26.9651 160° South  Level Estimated
Tue 10:23:00 AM 28.1686 27.0115 160° South  Level Estimated
Tue 10:24:00 AM 28.0533 27.0579 160° South  Level Estimated
Tue 10:25:00 AM 27.9380 27.1041 160° South  Level Estimated
Tue 10:26:00 AM 27.8227 27.1503 161° South  Level Estimated
Tue 10:27:00 AM 27.7073 27.1964 161° South  Level Estimated
Tue 10:28:00 AM 27.5920 27.2423 161° South  Level Estimated
Tue 10:29:00 AM 27.4766 27.2882 161° South  Level Estimated
Tue 10:30:00 AM 27.3612 27.3340 161° South  Level Estimated
Tue 10:31:00 AM 27.2458 27.3796 161° South  Level Estimated
Tue 10:32:00 AM 27.1304 27.4252 161° South  Level Estimated
Tue 10:33:00 AM 27.0150 27.4707 161° South  Level Estimated
Tue 10:34:00 AM 26.8995 27.5161 161° South  Level Estimated
Tue 10:35:00 AM 26.7841 27.5614 161° South  Level Estimated
Tue 10:36:00 AM 26.6686 27.6066 161° South  Level Estimated
Tue 10:37:00 AM 26.5531 27.6517 161° South  Level Estimated
Tue 10:38:00 AM 26.4376 27.6967 161° South  Level Estimated
Tue 10:39:00 AM 26.3221 27.7416 161° South  Level Estimated
Tue 10:40:00 AM 26.2066 27.7865 161° South  Level Estimated
Tue 10:41:00 AM 26.0910 27.8312 161° South  Level Estimated
Tue 10:42:00 AM 25.9755 27.8759 161° South  Level Estimated
Tue 10:43:00 AM 25.8599 27.9205 161° South  Level Estimated
Tue 10:44:00 AM 25.7443 27.9650 161° South  Level Estimated
Tue 10:45:00 AM 25.6287 28.0094 161° South  Level Estimated
Tue 10:46:00 AM 25.5131 28.0537 161° South  Level Estimated
Tue 10:47:00 AM 25.3975 28.0979 161° South  Level Estimated
Tue 10:48:00 AM 25.2818 28.1421 161° South  Level Estimated
Tue 10:49:00 AM 25.1662 28.1862 161° South  Level Estimated
Tue 10:50:00 AM 25.0505 28.2301 161° South  Level Estimated
Tue 10:51:00 AM 24.9348 28.2740 161° South  Level Estimated
Tue 10:52:00 AM 24.8191 28.3179 161° South  Level Estimated
Tue 10:53:00 AM 24.7034 28.3616 161° South  Level Estimated
Tue 10:54:00 AM 24.5877 28.4053 161° South  Level Estimated
Tue 10:55:00 AM 24.4720 28.4488 161° South  Level Estimated
Tue 10:56:00 AM 24.3562 28.4923 161° South  Level Estimated
Tue 10:57:00 AM 24.2405 28.5357 161° South  Level Estimated
Tue 10:58:00 AM 24.1247 28.5791 161° South  Level Estimated
Tue 10:59:00 AM 24.0089 28.6223 161° South  Level Estimated
Tue 11:00:00 AM 23.8932 28.6655 161° South  Level Estimated
Tue 11:01:00 AM 23.7773 28.7086 161° South  Level Estimated
Tue 11:02:00 AM 23.6615 28.7516 161° South  Level Estimated
Tue 11:03:00 AM 23.5457 28.7946 161° South  Level Estimated
Tue 11:04:00 AM 23.4299 28.8375 161° South  Level Estimated
Tue 11:05:00 AM 23.3140 28.8803 161° South  Level Estimated
Tue 11:06:00 AM 23.1982 28.9230 161° South  Level Estimated
Tue 11:07:00 AM 23.0823 28.9656 161° South  Level Estimated
Tue 11:08:00 AM 22.9664 29.0082 161° South  Level Estimated
Tue 11:09:00 AM 22.8505 29.0507 161° South  Level Estimated
Tue 11:10:00 AM 22.7346 29.0931 161° South  Level Estimated
Tue 11:11:00 AM 22.6187 29.1355 161° South  Level Estimated
Tue 11:12:00 AM 22.5028 29.1778 161° South  Level Estimated
Tue 11:13:00 AM 22.3868 29.2200 161° South  Level Estimated
Tue 11:14:00 AM 22.2709 29.2621 161° South  Level Estimated
Tue 11:15:00 AM 22.1549 29.3042 161° South  Level Estimated
Tue 11:16:00 AM 22.0389 29.3462 161° South  Level Estimated
Tue 11:17:00 AM 21.9230 29.3882 161° South  Level Estimated
Tue 11:18:00 AM 21.8070 29.4300 161° South  Level Estimated
Tue 11:19:00 AM 21.6910 29.4718 161° South  Level Estimated
Tue 11:20:00 AM 21.5749 29.5136 162° South  Level Estimated
Tue 11:21:00 AM 21.4589 29.5553 162° South  Level Estimated
Tue 11:22:00 AM 21.3429 29.5969 162° South  Level Estimated
Tue 11:23:00 AM 21.2268 29.6384 162° South  Level Estimated
Tue 11:24:00 AM 21.1108 29.6799 162° South  Level Estimated
Tue 11:25:00 AM 20.9947 29.7213 162° South  Level Estimated
Tue 11:26:00 AM 20.8786 29.7626 162° South  Level Estimated
Tue 11:27:00 AM 20.7625 29.8039 162° South  Level Estimated
Tue 11:28:00 AM 20.6464 29.8451 162° South  Level Estimated
Tue 11:29:00 AM 20.5303 29.8863 162° South  Level Estimated
Tue 11:30:00 AM 20.4142 29.9273 162° South  Level Estimated
Tue 11:31:00 AM 20.2981 29.9684 162° South  Level Estimated
Tue 11:32:00 AM 20.1819 30.0093 162° South  Level Estimated
Tue 11:33:00 AM 20.0658 30.0502 162° South  Level Estimated
Tue 11:34:00 AM 19.9497 30.0911 162° South  Level Estimated
Tue 11:35:00 AM 19.8335 30.1319 162° South  Level Estimated
Tue 11:36:00 AM 19.7173 30.1726 162° South  Level Estimated
Tue 11:37:00 AM 19.6012 30.2133 162° South  Level Estimated
Tue 11:38:00 AM 19.4850 30.2539 162° South  Level Estimated
Tue 11:39:00 AM 19.3688 30.2944 162° South  Level Estimated
Tue 11:40:00 AM 19.2526 30.3349 162° South  Level Estimated
Tue 11:41:00 AM 19.1363 30.3753 162° South  Level Estimated
Tue 11:42:00 AM 19.0201 30.4157 162° South  Level Estimated
Tue 11:43:00 AM 18.9039 30.4560 162° South  Level Estimated
Tue 11:44:00 AM 18.7876 30.4963 162° South  Level Estimated
Tue 11:45:00 AM 18.6714 30.5365 162° South  Level Estimated
Tue 11:46:00 AM 18.5551 30.5767 162° South  Level Estimated
Tue 11:47:00 AM 18.4389 30.6168 162° South  Level Estimated
Tue 11:48:00 AM 18.3226 30.6568 162° South  Level Estimated
Tue 11:49:00 AM 18.2063 30.6968 162° South  Level Estimated
Tue 11:50:00 AM 18.0900 30.7367 162° South  Level Estimated
Tue 11:51:00 AM 17.9737 30.7766 162° South  Level Estimated
Tue 11:52:00 AM 17.8574 30.8164 162° South  Level Estimated
Tue 11:53:00 AM 17.7411 30.8562 162° South  Level Estimated
Tue 11:54:00 AM 17.6247 30.8960 162° South  Level Estimated
Tue 11:55:00 AM 17.5084 30.9356 162° South  Level Estimated
Tue 11:56:00 AM 17.3921 30.9753 162° South  Level Estimated
Tue 11:57:00 AM 17.2757 31.0148 162° South  Level Estimated
Tue 11:58:00 AM 17.1593 31.0544 162° South  Level Estimated
Tue 11:59:00 AM 17.0430 31.0938 162° South  Level Estimated
Tue 12:00:00 PM 16.9266 31.1333 162° South  Level Estimated
Tue 12:01:00 PM 16.8102 31.1727 162° South  Level Estimated
Tue 12:02:00 PM 16.6938 31.2120 162° South  Level Estimated
Tue 12:03:00 PM 16.5774 31.2513 162° South  Level Estimated
Tue 12:04:00 PM 16.4610 31.2905 162° South  Level Estimated
Tue 12:05:00 PM 16.3446 31.3297 162° South  Level Estimated
Tue 12:06:00 PM 16.2282 31.3688 162° South  Level Estimated
Tue 12:07:00 PM 16.1118 31.4079 162° South  Level Estimated
Tue 12:08:00 PM 15.9954 31.4470 162° South  Level Estimated
Tue 12:09:00 PM 15.8789 31.4860 162° South  Level Estimated
Tue 12:10:00 PM 15.7625 31.5250 162° South  Level Estimated
Tue 12:11:00 PM 15.6460 31.5639 162° South  Level Estimated
Tue 12:12:00 PM 15.5296 31.6027 162° South  Level Estimated
Tue 12:13:00 PM 15.4131 31.6416 162° South  Level Estimated
Tue 12:14:00 PM 15.2966 31.6803 162° South  Level Estimated
Tue 12:15:00 PM 15.1801 31.7191 162° South  Level Estimated
Tue 12:16:00 PM 15.0637 31.7578 162° South  Level Estimated
Tue 12:17:00 PM 14.9472 31.7964 162° South  Level Estimated
Tue 12:18:00 PM 14.8307 31.8350 162° South  Level Estimated
Tue 12:19:00 PM 14.7142 31.8736 162° South  Level Estimated
Tue 12:20:00 PM 14.5976 31.9121 162° South  Level Estimated
Tue 12:21:00 PM 14.4811 31.9506 162° South  Level Estimated
Tue 12:22:00 PM 14.3646 31.9891 162° South  Level Estimated
Tue 12:23:00 PM 14.2481 32.0275 162° South  Level Estimated
Tue 12:24:00 PM 14.1315 32.0659 162° South  Level Estimated
Tue 12:25:00 PM 14.0150 32.1042 162° South  Level Estimated
Tue 12:26:00 PM 13.8984 32.1425 162° South  Level Estimated
Tue 12:27:00 PM 13.7819 32.1807 162° South  Level Estimated
Tue 12:28:00 PM 13.6653 32.2189 162° South  Level Estimated
Tue 12:29:00 PM 13.5487 32.2571 162° South  Level Estimated
Tue 12:30:00 PM 13.4322 32.2953 162° South  Level Estimated
Tue 12:31:00 PM 13.3156 32.3334 162° South  Level Estimated
Tue 12:32:00 PM 13.1990 32.3714 162° South  Level Estimated
Tue 12:33:00 PM 13.0824 32.4095 162° South  Level Estimated
Tue 12:34:00 PM 12.9658 32.4474 162° South  Level Estimated
Tue 12:35:00 PM 12.8492 32.4854 162° South  Level Estimated
Tue 12:36:00 PM 12.7326 32.5233 162° South  Level Estimated
Tue 12:37:00 PM 12.6160 32.5612 162° South  Level Estimated
Tue 12:38:00 PM 12.4994 32.5991 162° South  Level Estimated
Tue 12:39:00 PM 12.3828 32.6369 162° South  Level Estimated
Tue 12:40:00 PM 12.2661 32.6747 162° South  Level Estimated
Tue 12:41:00 PM 12.1495 32.7124 162° South  Level Estimated
Tue 12:42:00 PM 12.0329 32.7501 162° South  Level Estimated
Tue 12:43:00 PM 11.9162 32.7878 162° South  Level Estimated
Tue 12:44:00 PM 11.7996 32.8255 162° South  Level Estimated
Tue 12:45:00 PM 11.6829 32.8631 162° South  Level Estimated
Tue 12:46:00 PM 11.5663 32.9007 162° South  Level Estimated
Tue 12:47:00 PM 11.4496 32.9382 162° South  Level Estimated
Tue 12:48:00 PM 11.3329 32.9758 162° South  Level Estimated
Tue 12:49:00 PM 11.2163 33.0133 163° South  Level Estimated
Tue 12:50:00 PM 11.0996 33.0507 163° South  Level Estimated
Tue 12:51:00 PM 10.9829 33.0882 163° South  Level Estimated
Tue 12:52:00 PM 10.8662 33.1256 163° South  Level Estimated
Tue 12:53:00 PM 10.7495 33.1630 163° South  Level Estimated
Tue 12:54:00 PM 10.6328 33.2003 163° South  Level Estimated
Tue 12:55:00 PM 10.5161 33.2376 163° South  Level Estimated
Tue 12:56:00 PM 10.3994 33.2749 163° South  Level Estimated
Tue 12:57:00 PM 10.2827 33.3122 163° South  Level Estimated
Tue 12:58:00 PM 10.1660 33.3494 163° South  Level Estimated
Tue 12:59:00 PM 10.0493 33.3866 163° South  Level Estimated
Tue 01:00:00 PM 9.9326 33.4238 163° South  Level Estimated
Tue 01:01:00 PM 9.8159 33.4610 163° South  Level Estimated
Tue 01:02:00 PM 9.6991 33.4981 163° South  Level Estimated
Tue 01:03:00 PM 9.5824 33.5352 163° South  Level Estimated
Tue 01:04:00 PM 9.4657 33.5723 163° South  Level Estimated
Tue 01:05:00 PM 9.3489 33.6093 163° South  Level Estimated
Tue 01:06:00 PM 9.2322 33.6464 163° South  Level Estimated
Tue 01:07:00 PM 9.1154 33.6834 163° South  Level Estimated
Tue 01:08:00 PM 8.9987 33.7203 163° South  Level Estimated
Tue 01:09:00 PM 8.8819 33.7573 163° South  Level Estimated
Tue 01:10:00 PM 8.7652 33.7942 163° South  Level Estimated
Tue 01:11:00 PM 8.6484 33.8312 163° South  Level Estimated
Tue 01:12:00 PM 8.5316 33.8680 163° South  Level Estimated
Tue 01:13:00 PM 8.4149 33.9049 163° South  Level Estimated
Tue 01:14:00 PM 8.2981 33.9417 163° South  Level Estimated
Tue 01:15:00 PM 8.1813 33.9786 163° South  Level Estimated
Tue 01:16:00 PM 8.0645 34.0154 163° South  Level Estimated
Tue 01:17:00 PM 7.9478 34.0521 163° South  Level Estimated
Tue 01:18:00 PM 7.8310 34.0889 163° South  Level Estimated
Tue 01:19:00 PM 7.7142 34.1256 163° South  Level Estimated
Tue 01:20:00 PM 7.5974 34.1623 163° South  Level Estimated
Tue 01:21:00 PM 7.4806 34.1990 163° South  Level Estimated
Tue 01:22:00 PM 7.3638 34.2357 163° South  Level Estimated
Tue 01:23:00 PM 7.2470 34.2724 163° South  Level Estimated
Tue 01:24:00 PM 7.1302 34.3090 163° South  Level Estimated
Tue 01:25:00 PM 7.0134 34.3456 163° South  Level Estimated
Tue 01:26:00 PM 6.8966 34.3822 163° South  Level Estimated
Tue 01:27:00 PM 6.7797 34.4188 163° South  Level Estimated
Tue 01:28:00 PM 6.6629 34.4554 163° South  Level Estimated
Tue 01:29:00 PM 6.5461 34.4919 163° South  Level Estimated
Tue 01:30:00 PM 6.4293 34.5284 163° South  Level Estimated
Tue 01:31:00 PM 6.3125 34.5649 163° South  Level Estimated
Tue 01:32:00 PM 6.1956 34.6015 163° South  Level Estimated
Tue 01:33:00 PM 6.0788 34.6379 163° South  Level Estimated
Tue 01:34:00 PM 5.9620 34.6744 163° South  Level Estimated
Tue 01:35:00 PM 5.8451 34.7108 163° South  Level Estimated
Tue 01:36:00 PM 5.7283 34.7473 163° South  Level Estimated
Tue 01:37:00 PM 5.6115 34.7837 163° South  Level Estimated
Tue 01:38:00 PM 5.4946 34.8201 163° South  Level Estimated
Tue 01:39:00 PM 5.3778 34.8565 163° South  Level Estimated
Tue 01:39:27 PM 1.1510 35.9250 163° South 483 556 39,000  Level FlightAware ADS-B
Tue 01:40:00 PM 5.2609 34.8929 163° South  Level Estimated
Tue 01:40:07 PM 1.0700 35.9390 170° South 482 555 39,000  Level FlightAware ADS-B
Tue 01:40:47 PM 0.9740 35.9550 171° South 485 558 39,000  Level FlightAware ADS-B
Tue 01:41:32 PM 0.8750 35.9700 171° South 485 558 39,000  Level FlightAware ADS-B
Tue 01:42:12 PM 0.7850 35.9840 171° South 485 558 39,000  Level FlightAware ADS-B
Tue 01:42:52 PM 0.6930 35.9990 171° South 485 558 39,000  Level FlightAware ADS-B
Tue 01:43:37 PM 0.5930 36.0140 171° South 487 560 39,000  Level FlightAware ADS-B
Tue 01:44:17 PM 0.5040 36.0280 171° South 487 560 39,000  Level FlightAware ADS-B
Tue 01:45:02 PM 0.4010 36.0440 171° South 487 560 39,000  Level FlightAware ADS-B
Tue 01:45:42 PM 0.3110 36.0590 171° South 491 565 39,000  Level FlightAware ADS-B
Tue 01:46:27 PM 0.2130 36.0740 171° South 493 567 39,000  Level FlightAware ADS-B
Tue 01:47:07 PM 0.1230 36.0880 171° South 492 566 39,000 -300 Level FlightAware ADS-B
Tue 01:47:47 PM 0.0320 36.1020 171° South 485 558 38,600 -1,059 Descending FlightAware ADS-B
Tue 01:48:32 PM -0.0710 36.1190 171° South 488 562 37,500 -1,341 Descending FlightAware ADS-B
Tue 01:49:12 PM -0.1580 36.1320 172° South 490 564 36,700 -1,500 Descending FlightAware ADS-B
Tue 01:49:52 PM -0.2470 36.1460 171° South 493 567 35,500 -2,612 Descending FlightAware ADS-B
Tue 01:50:37 PM -0.3520 36.1710 167° South 498 573 33,000 -3,106 Descending FlightAware ADS-B
Tue 01:51:17 PM -0.4390 36.1990 162° South 494 568 31,100 -2,541 Descending FlightAware ADS-B
Tue 01:52:02 PM -0.5330 36.2300 162° South 483 556 29,400 -2,400 Descending FlightAware ADS-B
Tue 01:52:42 PM -0.6190 36.2590 161° South 474 545 27,700 -2,400 Descending FlightAware ADS-B
Tue 01:53:27 PM -0.7100 36.2880 162° South 463 533 26,000 -2,329 Descending FlightAware ADS-B
Tue 01:54:07 PM -0.7920 36.3160 161° South 456 525 24,400 -2,400 Descending FlightAware ADS-B
Tue 01:54:47 PM -0.8710 36.3420 162° South 448 516 22,800 -2,612 Descending FlightAware ADS-B
Tue 01:55:32 PM -0.9610 36.3710 162° South 412 474 20,700 -3,035 Descending FlightAware ADS-B
Tue 01:56:12 PM -1.0300 36.3940 162° South 388 447 18,500 -1,976 Descending FlightAware ADS-B
Tue 01:56:57 PM -1.1020 36.4180 162° South 359 413 17,900 -1,059 Descending FlightAware ADS-B
Tue 01:57:37 PM -1.1640 36.4400 160° South 349 402 17,000 -1,425 Descending FlightAware ADS-B
Tue 01:58:17 PM -1.2220 36.4670 155° Southeast 341 392 16,000 -1,624 Descending FlightAware ADS-B
Tue 01:59:02 PM -1.2890 36.4980 155° Southeast 334 384 14,700 -1,553 Descending FlightAware ADS-B
Tue 01:59:42 PM -1.3400 36.5210 156° South 302 348 13,800 -1,341 Descending FlightAware ADS-B
Tue 02:00:27 PM -1.3950 36.5460 156° South 268 308 12,800 -635 Descending FlightAware ADS-B
Tue 02:01:07 PM -1.4370 36.5650 156° South 233 268 12,900 75 Climbing FlightAware ADS-B
Tue 02:01:47 PM -1.4730 36.5820 155° Southeast 208 239 12,900  Level FlightAware ADS-B
Tue 02:02:32 PM -1.5140 36.6010 155° Southeast 209 241 12,900 -100 Level FlightAware ADS-B
Tue 02:02:47 PM -1.5240 36.6080 145° Southeast 210 242 12,800 -480 Descending FlightAware ADS-B
Tue 02:02:57 PM -1.5300 36.6160 127° Southeast 208 239 12,700 -600 Descending FlightAware ADS-B
Tue 02:03:07 PM -1.5310 36.6250 96° East 206 237 12,600 -1,000 Descending FlightAware ADS-B
Tue 02:03:27 PM -1.5250 36.6430 72° East 203 234 12,200 -1,600 Descending FlightAware ADS-B
Tue 02:04:07 PM -1.5040 36.6750 57° Northeast 207 238 11,000 -1,680 Descending FlightAware ADS-B
Tue 02:04:42 PM -1.4850 36.7010 54° Northeast 198 228 10,100 -1,292 Descending FlightAware ADS-B
Tue 02:05:12 PM -1.4680 36.7250 55° Northeast 196 226 9,600 -1,067 Descending FlightAware ADS-B
Tue 02:05:27 PM -1.4600 36.7350 51° Northeast 195 224 9,300 -1,050 Descending FlightAware ADS-B
Tue 02:05:52 PM -1.4460 36.7540 54° Northeast 196 226 8,900 -1,050 Descending FlightAware ADS-B
Tue 02:06:07 PM -1.4390 36.7640 55° Northeast 196 226 8,600 -1,067 Descending FlightAware ADS-B
Tue 02:06:37 PM -1.4230 36.7860 54° Northeast 194 223 8,100 -982 Descending FlightAware ADS-B
Tue 02:07:02 PM -1.4090 36.8050 54° Northeast 194 223 7,700 -982 Descending FlightAware ADS-B
Tue 02:07:32 PM -1.3940 36.8260 54° Northeast 186 214 7,200 -1,000 Descending FlightAware ADS-B
Tue 02:08:02 PM -1.3790 36.8460 53° Northeast 165 190 6,700 -873 Descending FlightAware ADS-B
Tue 02:08:27 PM -1.3690 36.8600 54° Northeast 148 170 6,400 -764 Descending FlightAware ADS-B
Tue 02:08:57 PM -1.3570 36.8760 53° Northeast 143 165 6,000 -667 Descending FlightAware ADS-B
Tue 02:09:12 PM -1.3510 36.8850 56° Northeast 143 165 5,900 -750 Descending FlightAware ADS-B
Tue 02:09:37 PM -1.3410 36.8980 52° Northeast 146 168 5,500 -750 Descending FlightAware ADS-B
Tue 02:09:52 PM -1.3350 36.9070 56° Northeast 148 170 5,400 -686 Descending FlightAware ADS-B
Tue 02:10:12 PM -1.3270 36.9170 51° Northeast 148 170 5,100 -900 Descending FlightAware ADS-B

Login

Don't have an account? Register now (free) for customized features, flight alerts, and more!